sensor_id;sensor_type;location;lat;lon;timestamp;temperature;humidity
25280;DHT22;13225;47.804;12.116;2023-09-30T00:00:36;17.30;99.90
25280;DHT22;13225;47.804;12.116;2023-09-30T00:03:02;17.30;99.90
25280;DHT22;13225;47.804;12.116;2023-09-30T00:05:28;17.50;99.90
25280;DHT22;13225;47.804;12.116;2023-09-30T00:07:54;17.60;99.90
25280;DHT22;13225;47.804;12.116;2023-09-30T00:10:19;17.70;99.90
25280;DHT22;13225;47.804;12.116;2023-09-30T00:12:45;17.80;99.90
25280;DHT22;13225;47.804;12.116;2023-09-30T00:15:11;17.80;99.90
25280;DHT22;13225;47.804;12.116;2023-09-30T00:17:36;17.80;99.90
25280;DHT22;13225;47.804;12.116;2023-09-30T00:20:02;17.80;99.90
25280;DHT22;13225;47.804;12.116;2023-09-30T00:22:29;17.80;99.90
25280;DHT22;13225;47.804;12.116;2023-09-30T00:24:55;17.70;99.90
25280;DHT22;13225;47.804;12.116;2023-09-30T00:27:20;17.70;99.90
25280;DHT22;13225;47.804;12.116;2023-09-30T00:29:46;17.70;99.90
25280;DHT22;13225;47.804;12.116;2023-09-30T00:32:12;17.70;99.90
25280;DHT22;13225;47.804;12.116;2023-09-30T00:34:38;17.80;99.90
25280;DHT22;13225;47.804;12.116;2023-09-30T00:37:03;17.80;99.90
25280;DHT22;13225;47.804;12.116;2023-09-30T00:39:29;17.80;99.90
25280;DHT22;13225;47.804;12.116;2023-09-30T00:41:59;17.80;99.90
25280;DHT22;13225;47.804;12.116;2023-09-30T00:44:28;17.70;99.90
25280;DHT22;13225;47.804;12.116;2023-09-30T00:46:54;17.80;99.90
25280;DHT22;13225;47.804;12.116;2023-09-30T00:49:24;17.80;99.90
25280;DHT22;13225;47.804;12.116;2023-09-30T00:51:50;17.80;99.90
25280;DHT22;13225;47.804;12.116;2023-09-30T00:54:17;17.80;99.90
25280;DHT22;13225;47.804;12.116;2023-09-30T00:56:44;17.70;99.90
25280;DHT22;13225;47.804;12.116;2023-09-30T00:59:17;17.70;99.90
25280;DHT22;13225;47.804;12.116;2023-09-30T01:01:43;17.70;99.90
25280;DHT22;13225;47.804;12.116;2023-09-30T01:04:11;17.70;99.90
25280;DHT22;13225;47.804;12.116;2023-09-30T01:06:36;17.60;99.90
25280;DHT22;13225;47.804;12.116;2023-09-30T01:09:02;17.60;99.90
25280;DHT22;13225;47.804;12.116;2023-09-30T01:11:28;17.50;99.90
25280;DHT22;13225;47.804;12.116;2023-09-30T01:13:54;17.50;99.90
25280;DHT22;13225;47.804;12.116;2023-09-30T01:16:21;17.40;99.90
25280;DHT22;13225;47.804;12.116;2023-09-30T01:18:47;17.40;99.90
25280;DHT22;13225;47.804;12.116;2023-09-30T01:21:12;17.30;99.90
25280;DHT22;13225;47.804;12.116;2023-09-30T01:23:38;17.20;99.90
25280;DHT22;13225;47.804;12.116;2023-09-30T01:26:09;17.20;99.90
25280;DHT22;13225;47.804;12.116;2023-09-30T01:28:35;17.10;99.90
25280;DHT22;13225;47.804;12.116;2023-09-30T01:31:01;17.10;99.90
25280;DHT22;13225;47.804;12.116;2023-09-30T01:33:27;17.00;99.90
25280;DHT22;13225;47.804;12.116;2023-09-30T01:35:54;17.00;99.90
25280;DHT22;13225;47.804;12.116;2023-09-30T01:38:20;17.00;99.90
25280;DHT22;13225;47.804;12.116;2023-09-30T01:40:46;17.00;99.90
25280;DHT22;13225;47.804;12.116;2023-09-30T01:43:12;16.90;99.90
25280;DHT22;13225;47.804;12.116;2023-09-30T01:45:42;16.90;99.90
25280;DHT22;13225;47.804;12.116;2023-09-30T01:48:09;16.80;99.90
25280;DHT22;13225;47.804;12.116;2023-09-30T01:50:39;16.80;99.90
25280;DHT22;13225;47.804;12.116;2023-09-30T01:53:06;16.80;99.90
25280;DHT22;13225;47.804;12.116;2023-09-30T01:55:35;16.70;99.90
25280;DHT22;13225;47.804;12.116;2023-09-30T01:58:02;16.80;99.90
25280;DHT22;13225;47.804;12.116;2023-09-30T02:00:27;16.90;99.90
25280;DHT22;13225;47.804;12.116;2023-09-30T02:02:54;16.80;99.90
25280;DHT22;13225;47.804;12.116;2023-09-30T02:05:21;16.70;99.90
25280;DHT22;13225;47.804;12.116;2023-09-30T02:07:48;16.60;99.90
25280;DHT22;13225;47.804;12.116;2023-09-30T02:10:13;16.50;99.90
25280;DHT22;13225;47.804;12.116;2023-09-30T02:12:39;16.60;99.90
25280;DHT22;13225;47.804;12.116;2023-09-30T02:15:05;16.70;99.90
25280;DHT22;13225;47.804;12.116;2023-09-30T02:17:32;16.60;99.90
25280;DHT22;13225;47.804;12.116;2023-09-30T02:19:58;16.60;99.90
25280;DHT22;13225;47.804;12.116;2023-09-30T02:22:23;16.60;99.90
25280;DHT22;13225;47.804;12.116;2023-09-30T02:24:50;16.60;99.90
25280;DHT22;13225;47.804;12.116;2023-09-30T02:27:16;16.60;99.90
25280;DHT22;13225;47.804;12.116;2023-09-30T02:29:41;16.60;99.90
25280;DHT22;13225;47.804;12.116;2023-09-30T02:32:07;16.60;99.90
25280;DHT22;13225;47.804;12.116;2023-09-30T02:34:34;16.60;99.90
25280;DHT22;13225;47.804;12.116;2023-09-30T02:37:00;16.60;99.90
25280;DHT22;13225;47.804;12.116;2023-09-30T02:39:26;16.60;99.90
25280;DHT22;13225;47.804;12.116;2023-09-30T02:41:52;16.60;99.90
25280;DHT22;13225;47.804;12.116;2023-09-30T02:44:18;16.60;99.90
25280;DHT22;13225;47.804;12.116;2023-09-30T02:46:43;16.50;99.90
25280;DHT22;13225;47.804;12.116;2023-09-30T02:49:09;16.40;99.90
25280;DHT22;13225;47.804;12.116;2023-09-30T02:51:34;16.50;99.90
25280;DHT22;13225;47.804;12.116;2023-09-30T02:54:00;16.50;99.90
25280;DHT22;13225;47.804;12.116;2023-09-30T02:56:26;16.50;99.90
25280;DHT22;13225;47.804;12.116;2023-09-30T02:58:53;16.50;99.90
25280;DHT22;13225;47.804;12.116;2023-09-30T03:01:19;16.50;99.90
25280;DHT22;13225;47.804;12.116;2023-09-30T03:03:46;16.40;99.90
25280;DHT22;13225;47.804;12.116;2023-09-30T03:06:11;16.40;99.90
25280;DHT22;13225;47.804;12.116;2023-09-30T03:08:37;16.50;99.90
25280;DHT22;13225;47.804;12.116;2023-09-30T03:11:03;16.40;99.90
25280;DHT22;13225;47.804;12.116;2023-09-30T03:13:30;16.40;99.90
25280;DHT22;13225;47.804;12.116;2023-09-30T03:15:56;16.40;99.90
25280;DHT22;13225;47.804;12.116;2023-09-30T03:18:22;16.40;99.90
25280;DHT22;13225;47.804;12.116;2023-09-30T03:20:58;16.40;99.90
25280;DHT22;13225;47.804;12.116;2023-09-30T03:23:26;16.40;99.90
25280;DHT22;13225;47.804;12.116;2023-09-30T03:25:57;16.40;99.90
25280;DHT22;13225;47.804;12.116;2023-09-30T03:28:23;16.40;99.90
25280;DHT22;13225;47.804;12.116;2023-09-30T03:30:48;16.40;99.90
25280;DHT22;13225;47.804;12.116;2023-09-30T03:33:14;16.50;99.90
25280;DHT22;13225;47.804;12.116;2023-09-30T03:35:39;16.40;99.90
25280;DHT22;13225;47.804;12.116;2023-09-30T03:38:05;16.30;99.90
25280;DHT22;13225;47.804;12.116;2023-09-30T03:40:32;16.40;99.90
25280;DHT22;13225;47.804;12.116;2023-09-30T03:42:59;16.30;99.90
25280;DHT22;13225;47.804;12.116;2023-09-30T03:45:25;16.30;99.90
25280;DHT22;13225;47.804;12.116;2023-09-30T03:47:51;16.30;99.90
25280;DHT22;13225;47.804;12.116;2023-09-30T03:50:17;16.20;99.90
25280;DHT22;13225;47.804;12.116;2023-09-30T03:52:43;16.20;99.90
25280;DHT22;13225;47.804;12.116;2023-09-30T03:55:13;16.20;99.90
25280;DHT22;13225;47.804;12.116;2023-09-30T03:57:41;16.20;99.90
25280;DHT22;13225;47.804;12.116;2023-09-30T04:00:07;16.20;99.90
25280;DHT22;13225;47.804;12.116;2023-09-30T04:02:33;16.20;99.90
25280;DHT22;13225;47.804;12.116;2023-09-30T04:04:59;16.20;99.90
25280;DHT22;13225;47.804;12.116;2023-09-30T04:07:25;16.20;99.90
25280;DHT22;13225;47.804;12.116;2023-09-30T04:09:55;16.20;99.90
25280;DHT22;13225;47.804;12.116;2023-09-30T04:12:21;16.20;99.90
25280;DHT22;13225;47.804;12.116;2023-09-30T04:14:51;16.20;99.90
25280;DHT22;13225;47.804;12.116;2023-09-30T04:17:17;16.20;99.90
25280;DHT22;13225;47.804;12.116;2023-09-30T04:19:43;16.20;99.90
25280;DHT22;13225;47.804;12.116;2023-09-30T04:22:08;16.20;99.90
25280;DHT22;13225;47.804;12.116;2023-09-30T04:24:34;16.20;99.90
25280;DHT22;13225;47.804;12.116;2023-09-30T04:27:00;16.20;99.90
25280;DHT22;13225;47.804;12.116;2023-09-30T04:29:29;16.20;99.90
25280;DHT22;13225;47.804;12.116;2023-09-30T04:31:55;16.20;99.90
25280;DHT22;13225;47.804;12.116;2023-09-30T04:34:21;16.20;99.90
25280;DHT22;13225;47.804;12.116;2023-09-30T04:36:47;16.20;99.90
25280;DHT22;13225;47.804;12.116;2023-09-30T04:39:13;16.20;99.90
25280;DHT22;13225;47.804;12.116;2023-09-30T04:41:40;16.20;99.90
25280;DHT22;13225;47.804;12.116;2023-09-30T04:44:06;16.20;99.90
25280;DHT22;13225;47.804;12.116;2023-09-30T04:46:32;16.20;99.90
25280;DHT22;13225;47.804;12.116;2023-09-30T04:48:59;16.10;99.90
25280;DHT22;13225;47.804;12.116;2023-09-30T04:51:24;16.10;99.90
25280;DHT22;13225;47.804;12.116;2023-09-30T04:53:51;16.10;99.90
25280;DHT22;13225;47.804;12.116;2023-09-30T04:56:16;16.10;99.90
25280;DHT22;13225;47.804;12.116;2023-09-30T04:58:42;16.10;99.90
25280;DHT22;13225;47.804;12.116;2023-09-30T05:01:08;16.10;99.90
25280;DHT22;13225;47.804;12.116;2023-09-30T05:03:34;16.10;99.90
25280;DHT22;13225;47.804;12.116;2023-09-30T05:06:00;16.10;99.90
25280;DHT22;13225;47.804;12.116;2023-09-30T05:08:26;16.10;99.90
25280;DHT22;13225;47.804;12.116;2023-09-30T05:10:54;16.10;99.90
25280;DHT22;13225;47.804;12.116;2023-09-30T05:13:22;16.20;99.90
25280;DHT22;13225;47.804;12.116;2023-09-30T05:15:51;16.10;99.90
25280;DHT22;13225;47.804;12.116;2023-09-30T05:18:17;16.10;99.90
25280;DHT22;13225;47.804;12.116;2023-09-30T05:20:42;16.10;99.90
25280;DHT22;13225;47.804;12.116;2023-09-30T05:23:09;16.10;99.90
25280;DHT22;13225;47.804;12.116;2023-09-30T05:25:38;16.10;99.90
25280;DHT22;13225;47.804;12.116;2023-09-30T05:28:05;16.10;99.90
25280;DHT22;13225;47.804;12.116;2023-09-30T05:30:32;16.10;99.90
25280;DHT22;13225;47.804;12.116;2023-09-30T05:32:59;16.20;99.90
25280;DHT22;13225;47.804;12.116;2023-09-30T05:35:24;16.20;99.90
25280;DHT22;13225;47.804;12.116;2023-09-30T05:37:50;16.20;99.90
25280;DHT22;13225;47.804;12.116;2023-09-30T05:40:19;16.20;99.90
25280;DHT22;13225;47.804;12.116;2023-09-30T05:42:54;16.30;99.90
25280;DHT22;13225;47.804;12.116;2023-09-30T05:45:21;16.30;99.90
25280;DHT22;13225;47.804;12.116;2023-09-30T05:47:49;16.30;99.90
25280;DHT22;13225;47.804;12.116;2023-09-30T05:50:15;16.30;99.90
25280;DHT22;13225;47.804;12.116;2023-09-30T05:52:42;16.40;99.90
25280;DHT22;13225;47.804;12.116;2023-09-30T05:55:10;16.30;99.90
25280;DHT22;13225;47.804;12.116;2023-09-30T05:57:36;16.30;99.90
25280;DHT22;13225;47.804;12.116;2023-09-30T06:00:03;16.30;99.90
25280;DHT22;13225;47.804;12.116;2023-09-30T06:02:52;16.30;99.90
25280;DHT22;13225;47.804;12.116;2023-09-30T06:05:18;16.30;99.90
25280;DHT22;13225;47.804;12.116;2023-09-30T06:07:48;16.30;99.90
25280;DHT22;13225;47.804;12.116;2023-09-30T06:10:14;16.30;99.90
25280;DHT22;13225;47.804;12.116;2023-09-30T06:12:50;16.30;99.90
25280;DHT22;13225;47.804;12.116;2023-09-30T06:15:20;16.30;99.90
25280;DHT22;13225;47.804;12.116;2023-09-30T06:17:48;16.40;99.90
25280;DHT22;13225;47.804;12.116;2023-09-30T06:20:14;16.40;99.90
25280;DHT22;13225;47.804;12.116;2023-09-30T06:22:43;16.50;99.90
25280;DHT22;13225;47.804;12.116;2023-09-30T06:25:16;16.50;99.90
25280;DHT22;13225;47.804;12.116;2023-09-30T06:27:46;16.50;99.90
25280;DHT22;13225;47.804;12.116;2023-09-30T06:30:16;16.70;99.90
25280;DHT22;13225;47.804;12.116;2023-09-30T06:32:42;16.70;99.90
25280;DHT22;13225;47.804;12.116;2023-09-30T06:35:08;16.70;99.90
25280;DHT22;13225;47.804;12.116;2023-09-30T06:37:39;16.70;99.90
25280;DHT22;13225;47.804;12.116;2023-09-30T06:40:09;16.80;99.90
25280;DHT22;13225;47.804;12.116;2023-09-30T06:42:37;16.80;99.90
25280;DHT22;13225;47.804;12.116;2023-09-30T06:45:03;16.80;99.90
25280;DHT22;13225;47.804;12.116;2023-09-30T06:47:34;16.70;99.90
25280;DHT22;13225;47.804;12.116;2023-09-30T06:50:05;16.70;99.90
25280;DHT22;13225;47.804;12.116;2023-09-30T06:52:34;16.80;99.90
25280;DHT22;13225;47.804;12.116;2023-09-30T06:55:01;16.80;99.90
25280;DHT22;13225;47.804;12.116;2023-09-30T06:57:27;16.80;99.90
25280;DHT22;13225;47.804;12.116;2023-09-30T06:59:52;16.80;99.90
25280;DHT22;13225;47.804;12.116;2023-09-30T07:02:18;16.90;99.90
25280;DHT22;13225;47.804;12.116;2023-09-30T07:04:43;17.00;99.90
25280;DHT22;13225;47.804;12.116;2023-09-30T07:07:09;17.10;99.90
25280;DHT22;13225;47.804;12.116;2023-09-30T07:09:35;17.00;99.90
25280;DHT22;13225;47.804;12.116;2023-09-30T07:12:01;17.20;99.90
25280;DHT22;13225;47.804;12.116;2023-09-30T07:14:27;17.30;99.90
25280;DHT22;13225;47.804;12.116;2023-09-30T07:16:52;17.30;99.90
25280;DHT22;13225;47.804;12.116;2023-09-30T07:19:18;17.50;99.90
25280;DHT22;13225;47.804;12.116;2023-09-30T07:21:44;17.60;99.90
25280;DHT22;13225;47.804;12.116;2023-09-30T07:24:12;17.70;99.90
25280;DHT22;13225;47.804;12.116;2023-09-30T07:26:38;17.60;99.90
25280;DHT22;13225;47.804;12.116;2023-09-30T07:29:04;17.60;99.90
25280;DHT22;13225;47.804;12.116;2023-09-30T07:31:34;17.70;99.90
25280;DHT22;13225;47.804;12.116;2023-09-30T07:34:00;17.80;99.90
25280;DHT22;13225;47.804;12.116;2023-09-30T07:36:26;17.70;99.90
25280;DHT22;13225;47.804;12.116;2023-09-30T07:38:52;17.80;99.90
25280;DHT22;13225;47.804;12.116;2023-09-30T07:41:18;18.00;99.90
25280;DHT22;13225;47.804;12.116;2023-09-30T07:43:44;18.10;99.90
25280;DHT22;13225;47.804;12.116;2023-09-30T07:46:09;18.30;99.90
25280;DHT22;13225;47.804;12.116;2023-09-30T07:48:35;18.40;99.90
25280;DHT22;13225;47.804;12.116;2023-09-30T07:51:01;18.50;99.90
25280;DHT22;13225;47.804;12.116;2023-09-30T07:53:27;18.70;99.90
25280;DHT22;13225;47.804;12.116;2023-09-30T07:55:53;18.90;99.90
25280;DHT22;13225;47.804;12.116;2023-09-30T07:58:20;19.00;99.90
25280;DHT22;13225;47.804;12.116;2023-09-30T08:00:45;19.00;99.90
25280;DHT22;13225;47.804;12.116;2023-09-30T08:03:11;19.00;99.90
25280;DHT22;13225;47.804;12.116;2023-09-30T08:05:37;19.00;99.90
25280;DHT22;13225;47.804;12.116;2023-09-30T08:08:03;18.90;99.90
25280;DHT22;13225;47.804;12.116;2023-09-30T08:10:29;18.90;99.90
25280;DHT22;13225;47.804;12.116;2023-09-30T08:12:57;18.90;99.90
25280;DHT22;13225;47.804;12.116;2023-09-30T08:15:26;19.00;99.90
25280;DHT22;13225;47.804;12.116;2023-09-30T08:17:51;19.00;99.90
25280;DHT22;13225;47.804;12.116;2023-09-30T08:20:17;18.80;99.90
25280;DHT22;13225;47.804;12.116;2023-09-30T08:22:44;18.90;99.90
25280;DHT22;13225;47.804;12.116;2023-09-30T08:25:10;18.90;99.90
25280;DHT22;13225;47.804;12.116;2023-09-30T08:27:39;19.00;99.90
25280;DHT22;13225;47.804;12.116;2023-09-30T08:30:05;19.20;99.90
25280;DHT22;13225;47.804;12.116;2023-09-30T08:32:35;19.20;99.90
25280;DHT22;13225;47.804;12.116;2023-09-30T08:35:01;19.00;99.90
25280;DHT22;13225;47.804;12.116;2023-09-30T08:37:28;19.20;99.90
25280;DHT22;13225;47.804;12.116;2023-09-30T08:39:54;19.20;99.90
25280;DHT22;13225;47.804;12.116;2023-09-30T08:42:22;19.40;99.90
25280;DHT22;13225;47.804;12.116;2023-09-30T08:44:47;19.40;99.90
25280;DHT22;13225;47.804;12.116;2023-09-30T08:47:14;19.30;99.90
25280;DHT22;13225;47.804;12.116;2023-09-30T08:49:41;19.10;99.90
25280;DHT22;13225;47.804;12.116;2023-09-30T08:52:10;19.30;99.90
25280;DHT22;13225;47.804;12.116;2023-09-30T08:54:37;19.50;99.90
25280;DHT22;13225;47.804;12.116;2023-09-30T08:57:04;19.80;99.90
25280;DHT22;13225;47.804;12.116;2023-09-30T08:59:31;20.00;99.90
25280;DHT22;13225;47.804;12.116;2023-09-30T09:01:59;19.90;99.90
25280;DHT22;13225;47.804;12.116;2023-09-30T09:04:25;19.70;99.90
25280;DHT22;13225;47.804;12.116;2023-09-30T09:06:53;19.50;99.90
25280;DHT22;13225;47.804;12.116;2023-09-30T09:09:20;19.30;99.90
25280;DHT22;13225;47.804;12.116;2023-09-30T09:11:48;19.40;99.90
25280;DHT22;13225;47.804;12.116;2023-09-30T09:14:14;19.50;99.90
25280;DHT22;13225;47.804;12.116;2023-09-30T09:16:54;19.60;99.90
25280;DHT22;13225;47.804;12.116;2023-09-30T09:19:20;19.80;99.90
25280;DHT22;13225;47.804;12.116;2023-09-30T09:21:57;19.80;99.90
25280;DHT22;13225;47.804;12.116;2023-09-30T09:24:33;19.80;99.90
25280;DHT22;13225;47.804;12.116;2023-09-30T09:27:12;19.70;99.90
25280;DHT22;13225;47.804;12.116;2023-09-30T09:29:42;19.70;99.90
25280;DHT22;13225;47.804;12.116;2023-09-30T09:32:12;19.80;99.90
25280;DHT22;13225;47.804;12.116;2023-09-30T09:34:39;20.00;99.90
25280;DHT22;13225;47.804;12.116;2023-09-30T09:37:16;20.10;99.90
25280;DHT22;13225;47.804;12.116;2023-09-30T09:39:55;20.10;99.90
25280;DHT22;13225;47.804;12.116;2023-09-30T09:42:27;20.10;99.90
25280;DHT22;13225;47.804;12.116;2023-09-30T09:44:55;20.10;99.90
25280;DHT22;13225;47.804;12.116;2023-09-30T09:47:22;20.00;99.90
25280;DHT22;13225;47.804;12.116;2023-09-30T09:49:49;19.80;99.90
25280;DHT22;13225;47.804;12.116;2023-09-30T09:52:16;19.50;99.90
25280;DHT22;13225;47.804;12.116;2023-09-30T09:54:48;19.70;99.90
25280;DHT22;13225;47.804;12.116;2023-09-30T09:57:14;20.20;99.90
25280;DHT22;13225;47.804;12.116;2023-09-30T09:59:43;20.20;99.90
25280;DHT22;13225;47.804;12.116;2023-09-30T10:02:11;20.50;99.90
25280;DHT22;13225;47.804;12.116;2023-09-30T10:04:44;20.50;99.90
25280;DHT22;13225;47.804;12.116;2023-09-30T10:07:31;20.40;99.90
25280;DHT22;13225;47.804;12.116;2023-09-30T10:10:01;20.60;99.90
25280;DHT22;13225;47.804;12.116;2023-09-30T10:12:32;20.60;99.90
25280;DHT22;13225;47.804;12.116;2023-09-30T10:15:01;20.60;99.90
25280;DHT22;13225;47.804;12.116;2023-09-30T10:17:59;20.70;99.90
25280;DHT22;13225;47.804;12.116;2023-09-30T10:20:29;20.90;99.90
25280;DHT22;13225;47.804;12.116;2023-09-30T10:25:44;20.50;99.90
25280;DHT22;13225;47.804;12.116;2023-09-30T10:31:28;20.50;99.90
25280;DHT22;13225;47.804;12.116;2023-09-30T10:36:33;20.20;99.90
25280;DHT22;13225;47.804;12.116;2023-09-30T10:39:00;20.10;99.90
25280;DHT22;13225;47.804;12.116;2023-09-30T10:46:48;20.10;99.90
25280;DHT22;13225;47.804;12.116;2023-09-30T10:49:16;20.30;99.90
25280;DHT22;13225;47.804;12.116;2023-09-30T10:51:45;20.20;99.90
25280;DHT22;13225;47.804;12.116;2023-09-30T10:54:12;20.30;99.90
25280;DHT22;13225;47.804;12.116;2023-09-30T10:56:38;20.40;99.90
25280;DHT22;13225;47.804;12.116;2023-09-30T10:59:04;20.10;99.90
25280;DHT22;13225;47.804;12.116;2023-09-30T11:01:34;20.40;99.90
25280;DHT22;13225;47.804;12.116;2023-09-30T11:04:02;20.50;99.90
25280;DHT22;13225;47.804;12.116;2023-09-30T11:06:30;20.30;99.90
25280;DHT22;13225;47.804;12.116;2023-09-30T11:08:58;20.40;99.90
25280;DHT22;13225;47.804;12.116;2023-09-30T11:13:59;20.70;99.90
25280;DHT22;13225;47.804;12.116;2023-09-30T11:16:25;20.80;99.90
25280;DHT22;13225;47.804;12.116;2023-09-30T11:18:54;20.80;99.90
25280;DHT22;13225;47.804;12.116;2023-09-30T11:21:21;20.30;99.90
25280;DHT22;13225;47.804;12.116;2023-09-30T11:23:47;20.00;99.90
25280;DHT22;13225;47.804;12.116;2023-09-30T11:26:14;19.70;99.90
25280;DHT22;13225;47.804;12.116;2023-09-30T11:28:44;20.10;99.90
25280;DHT22;13225;47.804;12.116;2023-09-30T11:31:13;20.50;99.90
25280;DHT22;13225;47.804;12.116;2023-09-30T11:33:53;20.40;99.90
25280;DHT22;13225;47.804;12.116;2023-09-30T11:36:22;20.60;99.90
25280;DHT22;13225;47.804;12.116;2023-09-30T11:38:50;20.80;99.90
25280;DHT22;13225;47.804;12.116;2023-09-30T11:41:16;21.40;99.90
25280;DHT22;13225;47.804;12.116;2023-09-30T11:46:31;22.90;99.90
25280;DHT22;13225;47.804;12.116;2023-09-30T11:51:28;21.60;99.90
25280;DHT22;13225;47.804;12.116;2023-09-30T11:53:55;21.40;99.90
25280;DHT22;13225;47.804;12.116;2023-09-30T11:56:21;21.20;99.90
25280;DHT22;13225;47.804;12.116;2023-09-30T11:58:53;21.40;99.90
25280;DHT22;13225;47.804;12.116;2023-09-30T12:01:19;21.50;99.90
25280;DHT22;13225;47.804;12.116;2023-09-30T12:03:47;21.70;99.90
25280;DHT22;13225;47.804;12.116;2023-09-30T12:06:13;21.70;99.90
25280;DHT22;13225;47.804;12.116;2023-09-30T12:08:39;21.80;99.90
25280;DHT22;13225;47.804;12.116;2023-09-30T12:11:05;21.80;99.90
25280;DHT22;13225;47.804;12.116;2023-09-30T12:13:31;21.80;99.90
25280;DHT22;13225;47.804;12.116;2023-09-30T12:15:57;22.00;99.90
25280;DHT22;13225;47.804;12.116;2023-09-30T12:18:22;22.00;99.90
25280;DHT22;13225;47.804;12.116;2023-09-30T12:20:51;22.00;99.90
25280;DHT22;13225;47.804;12.116;2023-09-30T12:23:18;21.90;99.90
25280;DHT22;13225;47.804;12.116;2023-09-30T12:25:44;21.90;99.90
25280;DHT22;13225;47.804;12.116;2023-09-30T12:28:09;21.70;99.90
25280;DHT22;13225;47.804;12.116;2023-09-30T12:30:35;21.60;99.90
25280;DHT22;13225;47.804;12.116;2023-09-30T12:33:01;21.60;99.90
25280;DHT22;13225;47.804;12.116;2023-09-30T12:35:27;21.60;99.90
25280;DHT22;13225;47.804;12.116;2023-09-30T12:37:52;21.50;99.90
25280;DHT22;13225;47.804;12.116;2023-09-30T12:40:18;21.40;99.90
25280;DHT22;13225;47.804;12.116;2023-09-30T12:42:44;21.40;99.90
25280;DHT22;13225;47.804;12.116;2023-09-30T12:45:11;21.60;99.90
25280;DHT22;13225;47.804;12.116;2023-09-30T12:47:37;21.80;99.90
25280;DHT22;13225;47.804;12.116;2023-09-30T12:50:04;22.20;99.90
25280;DHT22;13225;47.804;12.116;2023-09-30T12:52:29;22.40;99.90
25280;DHT22;13225;47.804;12.116;2023-09-30T12:54:57;22.30;99.90
25280;DHT22;13225;47.804;12.116;2023-09-30T12:57:23;22.10;99.90
25280;DHT22;13225;47.804;12.116;2023-09-30T12:59:49;21.80;99.90
25280;DHT22;13225;47.804;12.116;2023-09-30T13:02:15;22.00;99.90
25280;DHT22;13225;47.804;12.116;2023-09-30T13:04:44;22.40;99.90
25280;DHT22;13225;47.804;12.116;2023-09-30T13:07:10;22.50;99.90
25280;DHT22;13225;47.804;12.116;2023-09-30T13:09:36;22.40;99.90
25280;DHT22;13225;47.804;12.116;2023-09-30T13:12:03;22.40;99.90
25280;DHT22;13225;47.804;12.116;2023-09-30T13:14:28;22.30;99.90
25280;DHT22;13225;47.804;12.116;2023-09-30T13:16:54;22.30;99.90
25280;DHT22;13225;47.804;12.116;2023-09-30T13:19:20;22.50;99.90
25280;DHT22;13225;47.804;12.116;2023-09-30T13:21:49;22.90;99.90
25280;DHT22;13225;47.804;12.116;2023-09-30T13:24:18;23.10;99.90
25280;DHT22;13225;47.804;12.116;2023-09-30T13:26:45;22.60;99.90
25280;DHT22;13225;47.804;12.116;2023-09-30T13:29:10;22.40;99.90
25280;DHT22;13225;47.804;12.116;2023-09-30T13:31:37;22.40;99.90
25280;DHT22;13225;47.804;12.116;2023-09-30T13:34:06;22.70;99.90
25280;DHT22;13225;47.804;12.116;2023-09-30T13:36:33;22.70;99.90
25280;DHT22;13225;47.804;12.116;2023-09-30T13:38:59;22.40;99.90
25280;DHT22;13225;47.804;12.116;2023-09-30T13:41:24;22.30;99.90
25280;DHT22;13225;47.804;12.116;2023-09-30T13:43:50;22.30;99.90
25280;DHT22;13225;47.804;12.116;2023-09-30T13:46:15;22.10;99.90
25280;DHT22;13225;47.804;12.116;2023-09-30T13:48:42;22.00;99.90
25280;DHT22;13225;47.804;12.116;2023-09-30T13:51:09;22.00;99.90
25280;DHT22;13225;47.804;12.116;2023-09-30T13:53:35;21.90;99.90
25280;DHT22;13225;47.804;12.116;2023-09-30T13:56:00;21.70;99.90
25280;DHT22;13225;47.804;12.116;2023-09-30T13:58:26;21.60;99.90
25280;DHT22;13225;47.804;12.116;2023-09-30T14:00:52;21.40;99.90
25280;DHT22;13225;47.804;12.116;2023-09-30T14:03:21;21.30;99.90
25280;DHT22;13225;47.804;12.116;2023-09-30T14:05:47;21.30;99.90
25280;DHT22;13225;47.804;12.116;2023-09-30T14:08:12;21.10;99.90
25280;DHT22;13225;47.804;12.116;2023-09-30T14:10:38;21.10;99.90
25280;DHT22;13225;47.804;12.116;2023-09-30T14:13:04;20.90;99.90
25280;DHT22;13225;47.804;12.116;2023-09-30T14:15:29;20.90;99.90
25280;DHT22;13225;47.804;12.116;2023-09-30T14:17:57;20.80;99.90
25280;DHT22;13225;47.804;12.116;2023-09-30T14:20:24;20.80;99.90
25280;DHT22;13225;47.804;12.116;2023-09-30T14:22:53;21.00;99.90
25280;DHT22;13225;47.804;12.116;2023-09-30T14:25:21;21.10;99.90
25280;DHT22;13225;47.804;12.116;2023-09-30T14:27:47;21.10;99.90
25280;DHT22;13225;47.804;12.116;2023-09-30T14:30:13;21.00;99.90
25280;DHT22;13225;47.804;12.116;2023-09-30T14:32:39;21.00;99.90
25280;DHT22;13225;47.804;12.116;2023-09-30T14:35:06;21.00;99.90
25280;DHT22;13225;47.804;12.116;2023-09-30T14:37:32;21.00;99.90
25280;DHT22;13225;47.804;12.116;2023-09-30T14:39:58;21.10;99.90
25280;DHT22;13225;47.804;12.116;2023-09-30T14:42:23;21.10;99.90
25280;DHT22;13225;47.804;12.116;2023-09-30T14:44:49;21.10;99.90
25280;DHT22;13225;47.804;12.116;2023-09-30T14:47:14;21.20;99.90
25280;DHT22;13225;47.804;12.116;2023-09-30T14:49:41;21.10;99.90
25280;DHT22;13225;47.804;12.116;2023-09-30T14:52:07;21.00;99.90
25280;DHT22;13225;47.804;12.116;2023-09-30T14:54:35;21.00;99.90
25280;DHT22;13225;47.804;12.116;2023-09-30T14:57:00;20.90;99.90
25280;DHT22;13225;47.804;12.116;2023-09-30T14:59:26;20.80;99.90
25280;DHT22;13225;47.804;12.116;2023-09-30T15:01:52;20.80;99.90
25280;DHT22;13225;47.804;12.116;2023-09-30T15:04:18;20.70;99.90
25280;DHT22;13225;47.804;12.116;2023-09-30T15:06:44;20.60;99.90
25280;DHT22;13225;47.804;12.116;2023-09-30T15:09:11;20.60;99.90
25280;DHT22;13225;47.804;12.116;2023-09-30T15:11:37;20.50;99.90
25280;DHT22;13225;47.804;12.116;2023-09-30T15:14:03;20.30;99.90
25280;DHT22;13225;47.804;12.116;2023-09-30T15:16:30;20.20;99.90
25280;DHT22;13225;47.804;12.116;2023-09-30T15:18:57;20.20;99.90
25280;DHT22;13225;47.804;12.116;2023-09-30T15:21:23;20.00;99.90
25280;DHT22;13225;47.804;12.116;2023-09-30T15:23:49;20.00;99.90
25280;DHT22;13225;47.804;12.116;2023-09-30T15:26:15;19.90;99.90
25280;DHT22;13225;47.804;12.116;2023-09-30T15:28:41;19.90;99.90
25280;DHT22;13225;47.804;12.116;2023-09-30T15:31:07;19.80;99.90
25280;DHT22;13225;47.804;12.116;2023-09-30T15:33:34;19.80;99.90
25280;DHT22;13225;47.804;12.116;2023-09-30T15:36:08;19.80;99.90